sensor_id;sensor_type;location;lat;lon;timestamp;P1;durP1;ratioP1;P2;durP2;ratioP2
8161;SDS011;16778;48.154;15.094;2023-03-01T00:01:49;16.77;;;7.40;;
8161;SDS011;16778;48.154;15.094;2023-03-01T00:04:15;16.43;;;6.50;;
8161;SDS011;16778;48.154;15.094;2023-03-01T00:06:42;12.07;;;6.73;;
8161;SDS011;16778;48.154;15.094;2023-03-01T00:09:11;15.10;;;8.40;;
8161;SDS011;16778;48.154;15.094;2023-03-01T00:11:37;16.00;;;8.03;;
8161;SDS011;16778;48.154;15.094;2023-03-01T00:14:02;19.33;;;8.50;;
8161;SDS011;16778;48.154;15.094;2023-03-01T00:16:35;19.03;;;7.73;;
8161;SDS011;16778;48.154;15.094;2023-03-01T00:19:05;11.60;;;6.03;;
8161;SDS011;16778;48.154;15.094;2023-03-01T00:21:32;17.20;;;8.40;;
8161;SDS011;16778;48.154;15.094;2023-03-01T00:24:00;19.77;;;8.87;;
8161;SDS011;16778;48.154;15.094;2023-03-01T00:26:26;16.02;;;7.68;;
8161;SDS011;16778;48.154;15.094;2023-03-01T00:28:52;22.50;;;9.00;;
8161;SDS011;16778;48.154;15.094;2023-03-01T00:31:21;17.75;;;7.72;;
8161;SDS011;16778;48.154;15.094;2023-03-01T00:33:54;18.70;;;7.60;;
8161;SDS011;16778;48.154;15.094;2023-03-01T00:36:22;17.53;;;7.83;;
8161;SDS011;16778;48.154;15.094;2023-03-01T00:38:50;22.17;;;8.80;;
8161;SDS011;16778;48.154;15.094;2023-03-01T00:41:17;17.70;;;8.47;;
8161;SDS011;16778;48.154;15.094;2023-03-01T00:43:43;15.85;;;8.10;;
8161;SDS011;16778;48.154;15.094;2023-03-01T00:46:11;21.75;;;9.02;;
8161;SDS011;16778;48.154;15.094;2023-03-01T00:48:38;13.90;;;6.70;;
8161;SDS011;16778;48.154;15.094;2023-03-01T00:51:04;18.67;;;8.73;;
8161;SDS011;16778;48.154;15.094;2023-03-01T00:53:31;18.17;;;8.77;;
8161;SDS011;16778;48.154;15.094;2023-03-01T00:55:57;21.50;;;8.47;;
8161;SDS011;16778;48.154;15.094;2023-03-01T00:58:23;16.70;;;9.40;;
8161;SDS011;16778;48.154;15.094;2023-03-01T01:00:49;19.17;;;7.90;;
8161;SDS011;16778;48.154;15.094;2023-03-01T01:03:14;19.73;;;9.43;;
8161;SDS011;16778;48.154;15.094;2023-03-01T01:05:40;15.17;;;7.63;;
8161;SDS011;16778;48.154;15.094;2023-03-01T01:08:05;21.87;;;8.73;;
8161;SDS011;16778;48.154;15.094;2023-03-01T01:10:33;16.08;;;7.78;;
8161;SDS011;16778;48.154;15.094;2023-03-01T01:12:59;23.52;;;9.02;;
8161;SDS011;16778;48.154;15.094;2023-03-01T01:15:25;15.53;;;8.20;;
8161;SDS011;16778;48.154;15.094;2023-03-01T01:17:51;21.43;;;9.73;;
8161;SDS011;16778;48.154;15.094;2023-03-01T01:20:16;22.10;;;7.87;;
8161;SDS011;16778;48.154;15.094;2023-03-01T01:22:42;22.27;;;10.37;;
8161;SDS011;16778;48.154;15.094;2023-03-01T01:25:08;20.83;;;9.70;;
8161;SDS011;16778;48.154;15.094;2023-03-01T01:27:33;27.37;;;8.63;;
8161;SDS011;16778;48.154;15.094;2023-03-01T01:29:59;20.90;;;8.63;;
8161;SDS011;16778;48.154;15.094;2023-03-01T01:32:25;22.73;;;9.20;;
8161;SDS011;16778;48.154;15.094;2023-03-01T01:34:50;17.43;;;8.27;;
8161;SDS011;16778;48.154;15.094;2023-03-01T01:37:16;22.20;;;9.33;;
8161;SDS011;16778;48.154;15.094;2023-03-01T01:39:41;19.60;;;8.43;;
8161;SDS011;16778;48.154;15.094;2023-03-01T01:42:12;21.03;;;8.37;;
8161;SDS011;16778;48.154;15.094;2023-03-01T01:44:42;17.05;;;7.18;;
8161;SDS011;16778;48.154;15.094;2023-03-01T01:47:16;22.85;;;8.80;;
8161;SDS011;16778;48.154;15.094;2023-03-01T01:49:52;20.30;;;9.75;;
8161;SDS011;16778;48.154;15.094;2023-03-01T01:52:29;19.10;;;10.07;;
8161;SDS011;16778;48.154;15.094;2023-03-01T01:57:40;20.38;;;9.15;;
8161;SDS011;16778;48.154;15.094;2023-03-01T02:00:13;19.17;;;9.95;;
8161;SDS011;16778;48.154;15.094;2023-03-01T02:02:43;21.58;;;8.88;;
8161;SDS011;16778;48.154;15.094;2023-03-01T02:05:15;19.05;;;8.07;;
8161;SDS011;16778;48.154;15.094;2023-03-01T02:07:48;18.25;;;8.18;;
8161;SDS011;16778;48.154;15.094;2023-03-01T02:10:14;20.07;;;8.77;;
8161;SDS011;16778;48.154;15.094;2023-03-01T02:12:40;20.67;;;8.32;;
8161;SDS011;16778;48.154;15.094;2023-03-01T02:15:07;21.73;;;8.35;;
8161;SDS011;16778;48.154;15.094;2023-03-01T02:17:35;22.23;;;9.68;;
8161;SDS011;16778;48.154;15.094;2023-03-01T02:22:35;19.63;;;8.77;;
8161;SDS011;16778;48.154;15.094;2023-03-01T02:27:37;18.05;;;8.82;;
8161;SDS011;16778;48.154;15.094;2023-03-01T02:30:10;21.05;;;9.52;;
8161;SDS011;16778;48.154;15.094;2023-03-01T02:32:38;20.02;;;8.07;;
8161;SDS011;16778;48.154;15.094;2023-03-01T02:35:06;18.20;;;9.50;;
8161;SDS011;16778;48.154;15.094;2023-03-01T02:37:34;17.35;;;7.68;;
8161;SDS011;16778;48.154;15.094;2023-03-01T02:40:03;18.58;;;9.50;;
8161;SDS011;16778;48.154;15.094;2023-03-01T02:42:35;22.42;;;8.30;;
8161;SDS011;16778;48.154;15.094;2023-03-01T02:45:05;21.05;;;9.52;;
8161;SDS011;16778;48.154;15.094;2023-03-01T02:47:31;16.33;;;8.10;;
8161;SDS011;16778;48.154;15.094;2023-03-01T02:49:57;16.60;;;8.50;;
8161;SDS011;16778;48.154;15.094;2023-03-01T02:55:14;18.80;;;7.05;;
8161;SDS011;16778;48.154;15.094;2023-03-01T02:57:43;17.65;;;7.88;;
8161;SDS011;16778;48.154;15.094;2023-03-01T03:00:11;23.55;;;10.43;;
8161;SDS011;16778;48.154;15.094;2023-03-01T03:02:44;23.33;;;10.18;;
8161;SDS011;16778;48.154;15.094;2023-03-01T03:05:15;23.33;;;10.02;;
8161;SDS011;16778;48.154;15.094;2023-03-01T03:07:46;24.25;;;10.20;;
8161;SDS011;16778;48.154;15.094;2023-03-01T03:10:18;24.67;;;10.10;;
8161;SDS011;16778;48.154;15.094;2023-03-01T03:12:50;25.08;;;10.18;;
8161;SDS011;16778;48.154;15.094;2023-03-01T03:15:17;26.35;;;9.73;;
8161;SDS011;16778;48.154;15.094;2023-03-01T03:17:43;17.50;;;7.15;;
8161;SDS011;16778;48.154;15.094;2023-03-01T03:20:09;22.40;;;10.97;;
8161;SDS011;16778;48.154;15.094;2023-03-01T03:22:40;26.15;;;10.38;;
8161;SDS011;16778;48.154;15.094;2023-03-01T03:25:08;24.92;;;10.00;;
8161;SDS011;16778;48.154;15.094;2023-03-01T03:27:36;23.02;;;10.95;;
8161;SDS011;16778;48.154;15.094;2023-03-01T03:30:03;22.35;;;10.73;;
8161;SDS011;16778;48.154;15.094;2023-03-01T03:32:33;23.58;;;10.55;;
8161;SDS011;16778;48.154;15.094;2023-03-01T03:35:03;25.02;;;10.55;;
8161;SDS011;16778;48.154;15.094;2023-03-01T03:37:35;21.15;;;10.93;;
8161;SDS011;16778;48.154;15.094;2023-03-01T03:40:23;26.33;;;10.65;;
8161;SDS011;16778;48.154;15.094;2023-03-01T03:42:49;28.45;;;10.77;;
8161;SDS011;16778;48.154;15.094;2023-03-01T03:45:16;27.63;;;11.20;;
8161;SDS011;16778;48.154;15.094;2023-03-01T03:47:42;32.58;;;10.88;;
8161;SDS011;16778;48.154;15.094;2023-03-01T03:50:09;21.50;;;10.57;;
8161;SDS011;16778;48.154;15.094;2023-03-01T03:52:35;24.27;;;10.60;;
8161;SDS011;16778;48.154;15.094;2023-03-01T03:55:01;25.07;;;11.40;;
8161;SDS011;16778;48.154;15.094;2023-03-01T03:57:27;23.00;;;10.27;;
8161;SDS011;16778;48.154;15.094;2023-03-01T03:59:53;24.17;;;11.80;;
8161;SDS011;16778;48.154;15.094;2023-03-01T04:02:18;25.63;;;11.40;;
8161;SDS011;16778;48.154;15.094;2023-03-01T04:04:50;20.48;;;10.02;;
8161;SDS011;16778;48.154;15.094;2023-03-01T04:07:16;23.80;;;10.68;;
8161;SDS011;16778;48.154;15.094;2023-03-01T04:09:42;23.13;;;10.40;;
8161;SDS011;16778;48.154;15.094;2023-03-01T04:12:08;24.05;;;8.57;;
8161;SDS011;16778;48.154;15.094;2023-03-01T04:14:34;23.88;;;9.50;;
8161;SDS011;16778;48.154;15.094;2023-03-01T04:17:00;25.30;;;11.27;;
8161;SDS011;16778;48.154;15.094;2023-03-01T04:19:26;21.13;;;9.57;;
8161;SDS011;16778;48.154;15.094;2023-03-01T04:21:52;20.50;;;9.90;;
8161;SDS011;16778;48.154;15.094;2023-03-01T04:24:18;20.38;;;9.65;;
8161;SDS011;16778;48.154;15.094;2023-03-01T04:26:44;27.33;;;11.53;;
8161;SDS011;16778;48.154;15.094;2023-03-01T04:29:09;25.80;;;11.43;;
8161;SDS011;16778;48.154;15.094;2023-03-01T04:31:35;21.60;;;10.40;;
8161;SDS011;16778;48.154;15.094;2023-03-01T04:34:01;22.47;;;10.63;;
8161;SDS011;16778;48.154;15.094;2023-03-01T04:36:27;20.38;;;8.85;;
8161;SDS011;16778;48.154;15.094;2023-03-01T04:38:54;22.40;;;10.27;;
8161;SDS011;16778;48.154;15.094;2023-03-01T04:41:21;28.02;;;11.57;;
8161;SDS011;16778;48.154;15.094;2023-03-01T04:43:47;26.63;;;11.10;;
8161;SDS011;16778;48.154;15.094;2023-03-01T04:46:15;23.85;;;10.95;;
8161;SDS011;16778;48.154;15.094;2023-03-01T04:48:44;17.75;;;8.15;;
8161;SDS011;16778;48.154;15.094;2023-03-01T04:51:10;26.40;;;11.20;;
8161;SDS011;16778;48.154;15.094;2023-03-01T04:53:38;25.25;;;10.88;;
8161;SDS011;16778;48.154;15.094;2023-03-01T04:56:04;21.10;;;10.63;;
8161;SDS011;16778;48.154;15.094;2023-03-01T04:58:30;25.08;;;11.48;;
8161;SDS011;16778;48.154;15.094;2023-03-01T05:00:56;21.17;;;9.03;;
8161;SDS011;16778;48.154;15.094;2023-03-01T05:03:21;22.73;;;11.07;;
8161;SDS011;16778;48.154;15.094;2023-03-01T05:05:48;28.07;;;11.93;;
8161;SDS011;16778;48.154;15.094;2023-03-01T05:08:15;21.17;;;10.23;;
8161;SDS011;16778;48.154;15.094;2023-03-01T05:10:48;26.25;;;10.90;;
8161;SDS011;16778;48.154;15.094;2023-03-01T05:13:18;25.98;;;10.05;;
8161;SDS011;16778;48.154;15.094;2023-03-01T05:15:57;23.40;;;10.05;;
8161;SDS011;16778;48.154;15.094;2023-03-01T05:18:24;21.15;;;10.88;;
8161;SDS011;16778;48.154;15.094;2023-03-01T05:20:53;28.98;;;12.40;;
8161;SDS011;16778;48.154;15.094;2023-03-01T05:23:21;21.02;;;8.98;;
8161;SDS011;16778;48.154;15.094;2023-03-01T05:25:47;18.48;;;8.95;;
8161;SDS011;16778;48.154;15.094;2023-03-01T05:28:14;28.25;;;11.88;;
8161;SDS011;16778;48.154;15.094;2023-03-01T05:30:40;25.63;;;10.38;;
8161;SDS011;16778;48.154;15.094;2023-03-01T05:33:06;23.87;;;10.83;;
8161;SDS011;16778;48.154;15.094;2023-03-01T05:35:38;28.20;;;11.60;;
8161;SDS011;16778;48.154;15.094;2023-03-01T05:38:07;24.58;;;8.48;;
8161;SDS011;16778;48.154;15.094;2023-03-01T05:40:34;27.52;;;11.80;;
8161;SDS011;16778;48.154;15.094;2023-03-01T05:43:00;19.10;;;8.20;;
8161;SDS011;16778;48.154;15.094;2023-03-01T05:45:26;25.17;;;10.57;;
8161;SDS011;16778;48.154;15.094;2023-03-01T05:47:52;21.77;;;9.07;;
8161;SDS011;16778;48.154;15.094;2023-03-01T05:50:21;24.38;;;10.38;;
8161;SDS011;16778;48.154;15.094;2023-03-01T05:52:58;25.00;;;9.80;;
8161;SDS011;16778;48.154;15.094;2023-03-01T05:55:24;22.42;;;9.82;;
8161;SDS011;16778;48.154;15.094;2023-03-01T05:57:50;19.20;;;7.80;;
8161;SDS011;16778;48.154;15.094;2023-03-01T06:00:16;20.00;;;10.17;;
8161;SDS011;16778;48.154;15.094;2023-03-01T06:02:43;22.65;;;9.93;;
8161;SDS011;16778;48.154;15.094;2023-03-01T06:05:10;18.23;;;6.93;;
8161;SDS011;16778;48.154;15.094;2023-03-01T06:07:37;22.05;;;9.80;;
8161;SDS011;16778;48.154;15.094;2023-03-01T06:10:03;24.00;;;9.33;;
8161;SDS011;16778;48.154;15.094;2023-03-01T06:12:31;31.00;;;10.35;;
8161;SDS011;16778;48.154;15.094;2023-03-01T06:14:57;29.60;;;12.10;;
8161;SDS011;16778;48.154;15.094;2023-03-01T06:17:23;19.95;;;8.52;;
8161;SDS011;16778;48.154;15.094;2023-03-01T06:19:49;20.63;;;9.90;;
8161;SDS011;16778;48.154;15.094;2023-03-01T06:22:15;26.20;;;11.40;;
8161;SDS011;16778;48.154;15.094;2023-03-01T06:24:40;24.80;;;11.00;;
8161;SDS011;16778;48.154;15.094;2023-03-01T06:27:06;19.93;;;6.97;;
8161;SDS011;16778;48.154;15.094;2023-03-01T06:29:32;22.23;;;9.07;;
8161;SDS011;16778;48.154;15.094;2023-03-01T06:31:57;27.60;;;11.17;;
8161;SDS011;16778;48.154;15.094;2023-03-01T06:34:23;23.20;;;10.17;;
8161;SDS011;16778;48.154;15.094;2023-03-01T06:36:48;17.27;;;7.43;;
8161;SDS011;16778;48.154;15.094;2023-03-01T06:39:14;25.27;;;10.10;;
8161;SDS011;16778;48.154;15.094;2023-03-01T06:41:41;27.77;;;12.20;;
8161;SDS011;16778;48.154;15.094;2023-03-01T06:44:07;18.67;;;9.27;;
8161;SDS011;16778;48.154;15.094;2023-03-01T06:46:32;27.20;;;9.23;;
8161;SDS011;16778;48.154;15.094;2023-03-01T06:48:58;33.07;;;11.90;;
8161;SDS011;16778;48.154;15.094;2023-03-01T06:51:24;27.80;;;11.57;;
8161;SDS011;16778;48.154;15.094;2023-03-01T06:53:50;27.58;;;9.90;;
8161;SDS011;16778;48.154;15.094;2023-03-01T06:56:15;23.33;;;11.80;;
8161;SDS011;16778;48.154;15.094;2023-03-01T06:58:41;24.83;;;10.67;;
8161;SDS011;16778;48.154;15.094;2023-03-01T07:01:07;26.43;;;10.90;;
8161;SDS011;16778;48.154;15.094;2023-03-01T07:03:33;27.98;;;10.98;;
8161;SDS011;16778;48.154;15.094;2023-03-01T07:05:59;22.00;;;8.30;;
8161;SDS011;16778;48.154;15.094;2023-03-01T07:08:24;26.63;;;11.30;;
8161;SDS011;16778;48.154;15.094;2023-03-01T07:10:57;19.93;;;8.87;;
8161;SDS011;16778;48.154;15.094;2023-03-01T07:13:23;18.83;;;9.93;;
8161;SDS011;16778;48.154;15.094;2023-03-01T07:15:48;19.63;;;7.77;;
8161;SDS011;16778;48.154;15.094;2023-03-01T07:18:14;20.20;;;8.97;;
8161;SDS011;16778;48.154;15.094;2023-03-01T07:20:40;22.40;;;8.70;;
8161;SDS011;16778;48.154;15.094;2023-03-01T07:25:41;25.80;;;11.13;;
8161;SDS011;16778;48.154;15.094;2023-03-01T07:28:27;24.40;;;9.17;;
8161;SDS011;16778;48.154;15.094;2023-03-01T07:30:53;22.43;;;10.63;;
8161;SDS011;16778;48.154;15.094;2023-03-01T07:33:19;25.23;;;10.97;;
8161;SDS011;16778;48.154;15.094;2023-03-01T07:35:45;22.73;;;10.67;;
8161;SDS011;16778;48.154;15.094;2023-03-01T07:38:10;25.53;;;11.33;;
8161;SDS011;16778;48.154;15.094;2023-03-01T07:40:36;19.97;;;9.80;;
8161;SDS011;16778;48.154;15.094;2023-03-01T07:43:02;23.80;;;10.90;;
8161;SDS011;16778;48.154;15.094;2023-03-01T07:45:28;23.93;;;9.20;;
8161;SDS011;16778;48.154;15.094;2023-03-01T07:51:16;18.40;;;9.03;;
8161;SDS011;16778;48.154;15.094;2023-03-01T07:53:41;18.07;;;9.03;;
8161;SDS011;16778;48.154;15.094;2023-03-01T07:56:08;19.70;;;10.10;;
8161;SDS011;16778;48.154;15.094;2023-03-01T07:58:35;18.97;;;9.23;;
8161;SDS011;16778;48.154;15.094;2023-03-01T08:01:11;25.50;;;10.47;;
8161;SDS011;16778;48.154;15.094;2023-03-01T08:03:39;18.97;;;9.63;;
8161;SDS011;16778;48.154;15.094;2023-03-01T08:06:06;17.90;;;7.63;;
8161;SDS011;16778;48.154;15.094;2023-03-01T08:08:33;18.03;;;8.77;;
8161;SDS011;16778;48.154;15.094;2023-03-01T08:11:00;21.43;;;10.17;;
8161;SDS011;16778;48.154;15.094;2023-03-01T08:13:27;25.03;;;10.70;;
8161;SDS011;16778;48.154;15.094;2023-03-01T08:15:53;21.87;;;9.03;;
8161;SDS011;16778;48.154;15.094;2023-03-01T08:18:19;23.87;;;8.73;;
8161;SDS011;16778;48.154;15.094;2023-03-01T08:20:45;20.73;;;8.10;;
8161;SDS011;16778;48.154;15.094;2023-03-01T08:23:11;19.80;;;9.60;;
8161;SDS011;16778;48.154;15.094;2023-03-01T08:25:37;16.80;;;9.07;;
8161;SDS011;16778;48.154;15.094;2023-03-01T08:28:03;25.40;;;9.53;;
8161;SDS011;16778;48.154;15.094;2023-03-01T08:30:29;20.63;;;9.27;;
8161;SDS011;16778;48.154;15.094;2023-03-01T08:32:54;28.97;;;8.63;;
8161;SDS011;16778;48.154;15.094;2023-03-01T08:35:20;22.03;;;10.97;;
8161;SDS011;16778;48.154;15.094;2023-03-01T08:37:46;19.33;;;9.17;;
8161;SDS011;16778;48.154;15.094;2023-03-01T08:40:12;21.70;;;8.80;;
8161;SDS011;16778;48.154;15.094;2023-03-01T08:42:39;17.20;;;9.40;;
8161;SDS011;16778;48.154;15.094;2023-03-01T08:45:05;14.63;;;5.67;;
8161;SDS011;16778;48.154;15.094;2023-03-01T08:47:32;20.47;;;10.60;;
8161;SDS011;16778;48.154;15.094;2023-03-01T08:49:58;21.10;;;9.73;;
8161;SDS011;16778;48.154;15.094;2023-03-01T08:52:25;19.73;;;8.70;;
8161;SDS011;16778;48.154;15.094;2023-03-01T08:54:51;21.80;;;10.43;;
8161;SDS011;16778;48.154;15.094;2023-03-01T08:57:17;23.60;;;9.70;;
8161;SDS011;16778;48.154;15.094;2023-03-01T08:59:42;20.10;;;9.10;;
8161;SDS011;16778;48.154;15.094;2023-03-01T09:02:12;18.37;;;9.10;;
8161;SDS011;16778;48.154;15.094;2023-03-01T09:04:42;23.20;;;9.37;;
8161;SDS011;16778;48.154;15.094;2023-03-01T09:07:09;16.13;;;8.17;;
8161;SDS011;16778;48.154;15.094;2023-03-01T09:09:35;12.53;;;6.40;;
8161;SDS011;16778;48.154;15.094;2023-03-01T09:12:01;13.23;;;7.87;;
8161;SDS011;16778;48.154;15.094;2023-03-01T09:14:28;13.73;;;6.77;;
8161;SDS011;16778;48.154;15.094;2023-03-01T09:16:53;18.13;;;7.43;;
8161;SDS011;16778;48.154;15.094;2023-03-01T09:19:19;16.10;;;7.47;;
8161;SDS011;16778;48.154;15.094;2023-03-01T09:21:45;16.77;;;8.73;;
8161;SDS011;16778;48.154;15.094;2023-03-01T09:24:18;21.17;;;7.10;;
8161;SDS011;16778;48.154;15.094;2023-03-01T09:26:48;16.37;;;7.97;;
8161;SDS011;16778;48.154;15.094;2023-03-01T09:29:14;17.40;;;7.67;;
8161;SDS011;16778;48.154;15.094;2023-03-01T09:31:41;16.60;;;8.13;;
8161;SDS011;16778;48.154;15.094;2023-03-01T09:34:07;17.57;;;7.93;;
8161;SDS011;16778;48.154;15.094;2023-03-01T09:36:33;11.97;;;6.73;;
8161;SDS011;16778;48.154;15.094;2023-03-01T09:38:59;17.10;;;7.13;;
8161;SDS011;16778;48.154;15.094;2023-03-01T09:41:44;16.37;;;7.73;;
8161;SDS011;16778;48.154;15.094;2023-03-01T09:44:30;17.50;;;8.17;;
8161;SDS011;16778;48.154;15.094;2023-03-01T09:46:59;13.73;;;8.40;;
8161;SDS011;16778;48.154;15.094;2023-03-01T09:49:33;17.30;;;8.60;;
8161;SDS011;16778;48.154;15.094;2023-03-01T09:54:37;17.63;;;9.20;;
8161;SDS011;16778;48.154;15.094;2023-03-01T09:59:36;16.43;;;8.03;;
8161;SDS011;16778;48.154;15.094;2023-03-01T10:05:48;14.80;;;7.67;;
8161;SDS011;16778;48.154;15.094;2023-03-01T10:08:02;14.80;;;7.40;;
8161;SDS011;16778;48.154;15.094;2023-03-01T10:10:35;15.37;;;7.20;;
8161;SDS011;16778;48.154;15.094;2023-03-01T10:16:15;16.03;;;7.97;;
8161;SDS011;16778;48.154;15.094;2023-03-01T10:18:46;10.40;;;5.17;;
8161;SDS011;16778;48.154;15.094;2023-03-01T10:21:15;13.70;;;6.57;;
8161;SDS011;16778;48.154;15.094;2023-03-01T10:23:44;10.57;;;5.93;;
8161;SDS011;16778;48.154;15.094;2023-03-01T10:26:20;13.70;;;7.00;;
8161;SDS011;16778;48.154;15.094;2023-03-01T10:31:47;15.50;;;6.30;;
8161;SDS011;16778;48.154;15.094;2023-03-01T10:34:22;11.43;;;6.23;;
8161;SDS011;16778;48.154;15.094;2023-03-01T10:36:51;8.97;;;4.77;;
8161;SDS011;16778;48.154;15.094;2023-03-01T10:39:19;14.33;;;5.97;;
8161;SDS011;16778;48.154;15.094;2023-03-01T10:41:54;9.97;;;5.03;;
8161;SDS011;16778;48.154;15.094;2023-03-01T10:47:01;14.60;;;6.23;;
8161;SDS011;16778;48.154;15.094;2023-03-01T10:49:27;11.47;;;7.30;;
8161;SDS011;16778;48.154;15.094;2023-03-01T10:51:53;14.53;;;7.20;;
8161;SDS011;16778;48.154;15.094;2023-03-01T10:56:46;19.20;;;6.43;;
8161;SDS011;16778;48.154;15.094;2023-03-01T10:59:21;12.10;;;6.50;;
8161;SDS011;16778;48.154;15.094;2023-03-01T11:04:47;14.57;;;7.13;;
8161;SDS011;16778;48.154;15.094;2023-03-01T11:07:21;10.87;;;5.67;;
8161;SDS011;16778;48.154;15.094;2023-03-01T11:09:46;12.50;;;6.20;;
8161;SDS011;16778;48.154;15.094;2023-03-01T11:12:13;9.77;;;6.13;;
8161;SDS011;16778;48.154;15.094;2023-03-01T11:14:46;13.13;;;6.33;;
8161;SDS011;16778;48.154;15.094;2023-03-01T11:17:21;14.60;;;5.13;;
8161;SDS011;16778;48.154;15.094;2023-03-01T11:20:09;10.73;;;5.60;;
8161;SDS011;16778;48.154;15.094;2023-03-01T11:23:25;15.07;;;5.30;;
8161;SDS011;16778;48.154;15.094;2023-03-01T11:25:33;14.90;;;6.90;;
8161;SDS011;16778;48.154;15.094;2023-03-01T11:28:01;12.73;;;6.53;;
8161;SDS011;16778;48.154;15.094;2023-03-01T11:33:11;11.40;;;5.87;;
8161;SDS011;16778;48.154;15.094;2023-03-01T11:35:42;11.83;;;6.20;;
8161;SDS011;16778;48.154;15.094;2023-03-01T11:38:28;11.03;;;5.80;;
8161;SDS011;16778;48.154;15.094;2023-03-01T11:41:05;11.87;;;6.17;;
8161;SDS011;16778;48.154;15.094;2023-03-01T11:44:00;13.30;;;6.10;;
8161;SDS011;16778;48.154;15.094;2023-03-01T11:46:34;15.87;;;6.83;;
8161;SDS011;16778;48.154;15.094;2023-03-01T11:49:21;13.60;;;7.57;;
8161;SDS011;16778;48.154;15.094;2023-03-01T12:00:54;12.63;;;7.03;;
8161;SDS011;16778;48.154;15.094;2023-03-01T12:09:13;14.97;;;7.73;;
8161;SDS011;16778;48.154;15.094;2023-03-01T12:17:08;12.50;;;7.00;;
8161;SDS011;16778;48.154;15.094;2023-03-01T12:28:17;14.83;;;7.53;;
8161;SDS011;16778;48.154;15.094;2023-03-01T12:33:22;16.37;;;7.47;;
8161;SDS011;16778;48.154;15.094;2023-03-01T12:43:47;17.57;;;8.00;;
8161;SDS011;16778;48.154;15.094;2023-03-01T12:48:49;17.43;;;7.47;;
8161;SDS011;16778;48.154;15.094;2023-03-01T12:51:37;16.80;;;8.03;;
8161;SDS011;16778;48.154;15.094;2023-03-01T12:54:36;15.40;;;8.30;;
8161;SDS011;16778;48.154;15.094;2023-03-01T12:57:02;19.07;;;8.53;;
8161;SDS011;16778;48.154;15.094;2023-03-01T12:59:48;14.20;;;6.77;;
8161;SDS011;16778;48.154;15.094;2023-03-01T13:02:41;18.40;;;8.70;;
8161;SDS011;16778;48.154;15.094;2023-03-01T13:08:20;16.87;;;6.30;;
8161;SDS011;16778;48.154;15.094;2023-03-01T13:10:56;11.17;;;6.03;;
8161;SDS011;16778;48.154;15.094;2023-03-01T13:13:26;14.80;;;7.80;;
8161;SDS011;16778;48.154;15.094;2023-03-01T13:15:52;14.70;;;7.43;;
8161;SDS011;16778;48.154;15.094;2023-03-01T13:26:18;19.90;;;7.90;;
8161;SDS011;16778;48.154;15.094;2023-03-01T13:28:44;13.63;;;7.70;;
8161;SDS011;16778;48.154;15.094;2023-03-01T13:33:47;11.90;;;6.70;;
8161;SDS011;16778;48.154;15.094;2023-03-01T13:44:19;12.33;;;7.47;;
8161;SDS011;16778;48.154;15.094;2023-03-01T13:46:49;13.83;;;7.50;;
8161;SDS011;16778;48.154;15.094;2023-03-01T13:49:18;14.33;;;6.90;;
8161;SDS011;16778;48.154;15.094;2023-03-01T13:51:51;13.97;;;5.67;;
8161;SDS011;16778;48.154;15.094;2023-03-01T13:54:21;12.10;;;7.23;;
8161;SDS011;16778;48.154;15.094;2023-03-01T13:56:52;15.57;;;7.73;;
8161;SDS011;16778;48.154;15.094;2023-03-01T13:59:19;14.23;;;6.97;;
8161;SDS011;16778;48.154;15.094;2023-03-01T14:01:56;13.03;;;6.37;;
8161;SDS011;16778;48.154;15.094;2023-03-01T14:04:24;12.37;;;5.93;;
8161;SDS011;16778;48.154;15.094;2023-03-01T14:09:44;16.87;;;7.47;;
8161;SDS011;16778;48.154;15.094;2023-03-01T14:15:04;11.50;;;6.20;;
8161;SDS011;16778;48.154;15.094;2023-03-01T14:20:24;12.63;;;6.40;;
8161;SDS011;16778;48.154;15.094;2023-03-01T14:23:02;14.73;;;7.70;;
8161;SDS011;16778;48.154;15.094;2023-03-01T14:25:46;16.90;;;7.00;;
8161;SDS011;16778;48.154;15.094;2023-03-01T14:28:27;11.30;;;5.87;;
8161;SDS011;16778;48.154;15.094;2023-03-01T14:30:54;9.93;;;5.90;;
8161;SDS011;16778;48.154;15.094;2023-03-01T14:33:28;15.47;;;7.80;;
8161;SDS011;16778;48.154;15.094;2023-03-01T14:35:59;12.10;;;7.20;;
8161;SDS011;16778;48.154;15.094;2023-03-01T14:38:33;9.00;;;5.93;;
8161;SDS011;16778;48.154;15.094;2023-03-01T14:41:13;12.60;;;7.60;;
8161;SDS011;16778;48.154;15.094;2023-03-01T14:43:47;12.90;;;7.13;;
8161;SDS011;16778;48.154;15.094;2023-03-01T14:46:26;11.20;;;7.23;;
8161;SDS011;16778;48.154;15.094;2023-03-01T14:51:30;14.80;;;6.77;;
8161;SDS011;16778;48.154;15.094;2023-03-01T14:54:04;13.23;;;7.10;;
8161;SDS011;16778;48.154;15.094;2023-03-01T14:56:45;12.60;;;7.30;;
8161;SDS011;16778;48.154;15.094;2023-03-01T14:59:12;11.30;;;7.03;;
8161;SDS011;16778;48.154;15.094;2023-03-01T15:01:39;11.03;;;6.07;;
8161;SDS011;16778;48.154;15.094;2023-03-01T15:04:06;11.63;;;7.07;;
8161;SDS011;16778;48.154;15.094;2023-03-01T15:06:36;14.33;;;7.20;;
8161;SDS011;16778;48.154;15.094;2023-03-01T15:09:02;12.60;;;7.50;;
8161;SDS011;16778;48.154;15.094;2023-03-01T15:11:30;14.30;;;7.10;;
8161;SDS011;16778;48.154;15.094;2023-03-01T15:13:56;12.03;;;7.10;;
8161;SDS011;16778;48.154;15.094;2023-03-01T15:16:27;9.37;;;5.80;;
8161;SDS011;16778;48.154;15.094;2023-03-01T15:21:33;13.87;;;8.17;;
8161;SDS011;16778;48.154;15.094;2023-03-01T15:24:04;13.43;;;8.17;;
8161;SDS011;16778;48.154;15.094;2023-03-01T15:26:31;11.70;;;7.20;;
8161;SDS011;16778;48.154;15.094;2023-03-01T15:29:00;12.57;;;7.57;;
8161;SDS011;16778;48.154;15.094;2023-03-01T15:31:27;11.60;;;6.83;;
8161;SDS011;16778;48.154;15.094;2023-03-01T15:34:10;11.97;;;6.70;;
8161;SDS011;16778;48.154;15.094;2023-03-01T15:36:50;12.53;;;7.17;;
8161;SDS011;16778;48.154;15.094;2023-03-01T15:42:12;10.03;;;6.67;;
8161;SDS011;16778;48.154;15.094;2023-03-01T15:44:39;11.70;;;6.87;;
8161;SDS011;16778;48.154;15.094;2023-03-01T15:47:29;13.93;;;7.20;;
8161;SDS011;16778;48.154;15.094;2023-03-01T15:49:55;19.77;;;7.77;;
8161;SDS011;16778;48.154;15.094;2023-03-01T15:55:26;17.27;;;8.57;;
8161;SDS011;16778;48.154;15.094;2023-03-01T15:58:27;15.90;;;7.90;;
8161;SDS011;16778;48.154;15.094;2023-03-01T16:00:50;12.57;;;6.80;;
8161;SDS011;16778;48.154;15.094;2023-03-01T16:03:20;15.03;;;7.30;;
8161;SDS011;16778;48.154;15.094;2023-03-01T16:05:47;13.43;;;7.83;;
8161;SDS011;16778;48.154;15.094;2023-03-01T16:08:14;15.50;;;7.97;;
8161;SDS011;16778;48.154;15.094;2023-03-01T16:10:40;16.27;;;8.90;;
8161;SDS011;16778;48.154;15.094;2023-03-01T16:13:08;14.63;;;8.00;;
8161;SDS011;16778;48.154;15.094;2023-03-01T16:15:38;11.23;;;6.80;;
8161;SDS011;16778;48.154;15.094;2023-03-01T16:18:04;15.27;;;9.37;;
8161;SDS011;16778;48.154;15.094;2023-03-01T16:20:31;15.53;;;8.10;;
8161;SDS011;16778;48.154;15.094;2023-03-01T16:22:58;19.30;;;8.40;;
8161;SDS011;16778;48.154;15.094;2023-03-01T16:25:25;18.23;;;7.67;;
8161;SDS011;16778;48.154;15.094;2023-03-01T16:27:50;14.47;;;7.33;;
8161;SDS011;16778;48.154;15.094;2023-03-01T16:30:18;13.93;;;7.43;;
8161;SDS011;16778;48.154;15.094;2023-03-01T16:32:46;10.20;;;5.83;;
8161;SDS011;16778;48.154;15.094;2023-03-01T16:35:13;16.33;;;7.63;;
8161;SDS011;16778;48.154;15.094;2023-03-01T16:37:40;14.87;;;7.90;;
8161;SDS011;16778;48.154;15.094;2023-03-01T16:40:06;18.20;;;9.83;;
8161;SDS011;16778;48.154;15.094;2023-03-01T16:42:50;16.80;;;7.90;;
8161;SDS011;16778;48.154;15.094;2023-03-01T16:45:17;17.10;;;8.17;;
8161;SDS011;16778;48.154;15.094;2023-03-01T16:47:43;15.83;;;8.53;;